Time;durP1;ratioP1;P1;durP2;ratioP2;P2;SDS_P1;SDS_P2;PMS_P1;PMS_P2;Temp;Humidity;BMP_temperature;BMP_pressure;BME280_temperature;BME280_humidity;BME280_pressure;Samples;Min_cycle;Max_cycle;Signal;HPM_P1;HPM_P2
2022/04/14 00:01:02;;;;;;;5.78;1.80;;;;;;;13.59;81.16;99425.59;8151759;28;20101;-73
2022/04/14 00:05:05;;;;;;;8.07;1.77;;;;;;;13.57;80.84;99419.53;8160265;29;20114;-72
2022/04/14 00:09:06;;;;;;;8.88;2.20;;;;;;;13.55;81.00;99424.78;8152512;29;20074;-72
2022/04/14 00:13:08;;;;;;;4.10;1.33;;;;;;;13.54;81.26;99430.88;8166645;29;20039;-73
2022/04/14 00:17:12;;;;;;;5.80;1.70;;;;;;;13.55;81.42;99434.34;8158317;29;20059;-73
2022/04/14 00:21:39;;;;;;;4.80;1.80;;;;;;;13.53;81.12;99433.53;8149438;29;20103;-73
2022/04/14 00:26:01;;;;;;;3.92;1.63;;;;;;;13.49;81.74;99439.69;8151368;29;20123;-73
2022/04/14 00:30:03;;;;;;;8.23;2.23;;;;;;;13.50;81.97;99436.19;8158770;29;20127;-73
2022/04/14 00:34:05;;;;;;;9.77;2.08;;;;;;;13.48;81.49;99444.03;8170751;28;20403;-72
2022/04/14 00:38:07;;;;;;;4.65;2.25;;;;;;;13.47;81.63;99441.44;8139331;29;20069;-72
2022/04/14 00:42:12;;;;;;;8.50;2.00;;;;;;;13.42;81.82;99449.31;8160789;29;20039;-73
2022/04/14 00:46:14;;;;;;;4.53;1.98;;;;;;;13.38;82.28;99445.03;8166095;29;20621;-72
2022/04/14 00:50:15;;;;;;;8.90;2.33;;;;;;;13.34;82.56;99439.91;8171348;29;20519;-73
2022/04/14 00:54:17;;;;;;;5.63;2.17;;;;;;;13.28;83.41;99446.94;8153128;29;20230;-73
2022/04/14 00:58:19;;;;;;;3.22;2.00;;;;;;;13.26;83.31;99451.28;8169681;29;20075;-73
2022/04/14 01:02:20;;;;;;;6.68;2.08;;;;;;;13.26;83.29;99451.28;8169246;28;20678;-73
2022/04/14 01:06:23;;;;;;;4.80;1.83;;;;;;;13.27;83.21;99454.75;8175358;29;20050;-73
2022/04/14 01:10:25;;;;;;;4.95;1.85;;;;;;;13.22;82.95;99452.22;8185238;29;20044;-73
2022/04/14 01:14:29;;;;;;;2.67;2.00;;;;;;;13.19;82.98;99457.50;8176998;29;20429;-72
2022/04/14 01:18:30;;;;;;;4.60;1.77;;;;;;;13.18;82.92;99465.34;8169662;29;20127;-73
2022/04/14 01:22:38;;;;;;;7.32;2.83;;;;;;;13.15;83.28;99473.16;8168525;29;20368;-72
2022/04/14 01:26:40;;;;;;;3.92;2.15;;;;;;;13.15;82.66;99479.25;8169651;29;20048;-73
2022/04/14 01:30:42;;;;;;;3.75;2.33;;;;;;;13.13;83.15;99486.22;8147603;29;20078;-73
2022/04/14 01:34:43;;;;;;;4.13;2.28;;;;;;;13.11;83.01;99492.34;8167533;28;20423;-73
2022/04/14 01:38:45;;;;;;;5.28;1.88;;;;;;;13.06;83.12;99497.59;8168678;29;20478;-72
2022/04/14 01:42:47;;;;;;;4.27;1.83;;;;;;;13.00;82.91;99500.28;8169290;29;20122;-73
2022/04/14 01:46:48;;;;;;;4.82;1.90;;;;;;;12.92;83.30;99495.16;8162748;29;20138;-72
2022/04/14 01:50:50;;;;;;;4.80;1.90;;;;;;;12.87;83.67;99494.34;8165146;29;20054;-72
2022/04/14 01:54:51;;;;;;;4.00;2.42;;;;;;;12.79;83.81;99493.59;8167839;29;20070;-73
2022/04/14 01:58:53;;;;;;;8.13;2.28;;;;;;;12.79;84.66;99498.81;8165600;29;20159;-72
2022/04/14 02:02:54;;;;;;;5.78;2.30;;;;;;;12.74;84.58;99497.97;8164146;29;20110;-72
2022/04/14 02:06:56;;;;;;;5.80;2.30;;;;;;;12.75;85.16;99493.63;8170513;29;20078;-72
2022/04/14 02:10:57;;;;;;;4.93;2.20;;;;;;;12.77;84.55;99495.38;8169402;29;20063;-73
2022/04/14 02:14:59;;;;;;;5.72;2.58;;;;;;;12.79;85.09;99509.22;8157968;29;20849;-72
2022/04/14 02:19:00;;;;;;;6.25;2.88;;;;;;;12.80;84.90;99505.75;8166611;29;20092;-72
2022/04/14 02:23:01;;;;;;;4.63;2.40;;;;;;;12.78;84.62;99499.69;8171167;29;20050;-72
2022/04/14 02:27:04;;;;;;;3.95;1.95;;;;;;;12.76;84.72;99506.66;8170323;29;20055;-72
2022/04/14 02:31:05;;;;;;;5.10;2.63;;;;;;;12.71;85.08;99505.84;8167355;29;20177;-72
2022/04/14 02:35:07;;;;;;;6.28;2.33;;;;;;;12.68;84.99;99501.53;8168719;29;20114;-72
2022/04/14 02:39:09;;;;;;;7.75;3.83;;;;;;;12.63;85.39;99492.03;8170948;29;20043;-72
2022/04/14 02:43:11;;;;;;;8.60;3.55;;;;;;;12.65;85.60;99498.09;8171265;29;20048;-72
2022/04/14 02:47:12;;;;;;;5.18;4.72;;;;;;;12.67;85.33;99499.81;8167727;28;20051;-72
2022/04/14 02:51:14;;;;;;;7.07;5.10;;;;;;;12.68;85.31;99506.75;8167729;29;20544;-72
2022/04/14 02:55:19;;;;;;;12.90;5.47;;;;;;;12.67;84.81;99505.00;8171955;29;20082;-72
2022/04/14 02:59:20;;;;;;;7.22;6.32;;;;;;;12.66;85.16;99495.47;8171936;29;20051;-72
2022/04/14 03:03:24;;;;;;;10.95;6.85;;;;;;;12.65;84.59;99498.09;8162007;29;20051;-72
2022/04/14 03:07:25;;;;;;;10.05;8.93;;;;;;;12.63;84.47;99498.13;8158505;29;20043;-72
2022/04/14 03:11:26;;;;;;;11.00;8.68;;;;;;;12.66;84.79;99499.81;8165277;29;20513;-72
2022/04/14 03:15:28;;;;;;;11.27;9.50;;;;;;;12.66;85.09;99490.25;8160843;29;20170;-73
2022/04/14 03:19:30;;;;;;;12.27;9.93;;;;;;;12.70;84.09;99496.28;8147941;29;20094;-72
2022/04/14 03:23:31;;;;;;;14.07;9.85;;;;;;;12.71;84.61;99498.03;8165538;29;20067;-73
2022/04/14 03:27:33;;;;;;;16.80;9.97;;;;;;;12.71;83.75;99503.22;8165684;29;20087;-73
2022/04/14 03:31:35;;;;;;;16.05;10.57;;;;;;;12.66;84.20;99505.91;8148534;29;20054;-72
2022/04/14 03:35:37;;;;;;;15.45;11.25;;;;;;;12.67;84.08;99502.41;8150052;29;20055;-72
2022/04/14 03:39:38;;;;;;;13.35;10.43;;;;;;;12.67;83.65;99506.75;8163109;29;20069;-72
2022/04/14 03:43:39;;;;;;;15.75;11.07;;;;;;;12.69;83.37;99510.22;8164875;29;20147;-72
2022/04/14 03:47:41;;;;;;;14.32;10.82;;;;;;;12.70;83.32;99511.94;8160767;29;20090;-72
2022/04/14 03:51:42;;;;;;;16.60;11.45;;;;;;;12.68;83.45;99501.53;8144987;29;20043;-73
2022/04/14 03:55:46;;;;;;;17.05;12.23;;;;;;;12.65;83.92;99505.91;8146774;29;20051;-73
2022/04/14 03:59:47;;;;;;;15.40;10.82;;;;;;;12.63;83.74;99521.56;8160663;29;20167;-72
2022/04/14 04:03:50;;;;;;;13.63;10.02;;;;;;;12.57;83.69;99523.38;8160324;29;20055;-72
2022/04/14 04:07:52;;;;;;;11.43;8.93;;;;;;;12.50;84.15;99525.16;8164238;29;20053;-73
2022/04/14 04:11:54;;;;;;;11.95;9.55;;;;;;;12.43;84.88;99520.03;8163010;29;20047;-73
2022/04/14 04:15:55;;;;;;;16.17;11.10;;;;;;;12.35;85.08;99520.97;8146172;29;20055;-73
2022/04/14 04:19:57;;;;;;;14.25;11.63;;;;;;;12.35;85.18;99522.72;8142704;29;20058;-73
2022/04/14 04:23:58;;;;;;;14.27;10.52;;;;;;;12.29;84.94;99520.16;8164184;29;20183;-73
2022/04/14 04:28:00;;;;;;;12.60;9.73;;;;;;;12.20;85.50;99518.50;8164671;29;20052;-73
2022/04/14 04:32:01;;;;;;;19.00;11.30;;;;;;;12.17;85.63;99526.34;8154682;29;20150;-72
2022/04/14 04:36:03;;;;;;;11.40;10.20;;;;;;;12.14;85.92;99523.78;8142785;29;20063;-72
2022/04/14 04:40:05;;;;;;;15.88;11.43;;;;;;;12.12;86.08;99532.47;8160435;29;20039;-72
2022/04/14 04:44:07;;;;;;;15.57;11.73;;;;;;;12.11;85.64;99531.59;8165315;29;20068;-72
2022/04/14 04:48:08;;;;;;;17.77;12.40;;;;;;;12.13;86.16;99537.66;8159356;29;20051;-72
2022/04/14 04:52:10;;;;;;;17.75;13.38;;;;;;;12.15;86.21;99545.47;8146468;29;21253;-72
2022/04/14 04:56:11;;;;;;;14.52;11.90;;;;;;;12.17;85.39;99541.97;8162797;29;20317;-72
2022/04/14 05:00:13;;;;;;;17.65;13.25;;;;;;;12.18;85.59;99551.50;8160301;29;20067;-72
2022/04/14 05:04:14;;;;;;;18.67;13.52;;;;;;;12.20;85.56;99556.69;8135405;29;20151;-72
2022/04/14 05:08:16;;;;;;;18.60;12.97;;;;;;;12.24;85.40;99564.47;8148743;29;20047;-72
2022/04/14 05:12:17;;;;;;;22.65;13.65;;;;;;;12.30;84.77;99566.16;8159608;29;20047;-72
2022/04/14 05:16:19;;;;;;;17.95;14.02;;;;;;;12.39;84.89;99568.69;8161050;29;20057;-72
2022/04/14 05:20:21;;;;;;;22.43;13.77;;;;;;;12.46;84.76;99567.75;8146428;29;20461;-72
2022/04/14 05:24:23;;;;;;;17.70;12.52;;;;;;;12.51;84.98;99576.38;8162636;29;20044;-72
2022/04/14 05:28:25;;;;;;;14.15;10.63;;;;;;;12.51;84.91;99584.19;8161722;29;20082;-72
2022/04/14 05:32:27;;;;;;;15.30;7.68;;;;;;;12.45;84.01;99583.41;8157728;29;20047;-73
2022/04/14 05:36:30;;;;;;;10.05;6.97;;;;;;;12.43;83.73;99585.16;8161478;29;20060;-73
2022/04/14 05:40:32;;;;;;;13.35;9.15;;;;;;;12.39;83.62;99592.13;8161521;29;20043;-73
2022/04/14 05:44:33;;;;;;;11.13;9.10;;;;;;;12.47;83.63;99589.44;8129099;29;20093;-73
2022/04/14 05:48:35;;;;;;;20.20;15.27;;;;;;;12.60;84.12;99597.16;8153104;29;20164;-73
2022/04/14 05:52:36;;;;;;;25.40;16.67;;;;;;;12.83;83.07;99604.72;8156402;29;20048;-73
2022/04/14 05:56:38;;;;;;;22.67;15.10;;;;;;;13.01;82.58;99595.84;8158769;29;20064;-73
2022/04/14 06:00:40;;;;;;;19.98;14.15;;;;;;;13.26;82.39;99599.94;8156545;29;20052;-73
2022/04/14 06:04:41;;;;;;;21.15;14.75;;;;;;;13.41;81.97;99604.09;8141620;29;20051;-73
2022/04/14 06:08:43;;;;;;;23.57;14.60;;;;;;;13.56;80.40;99598.69;8154976;29;20075;-73
2022/04/14 06:12:45;;;;;;;21.40;13.43;;;;;;;13.82;79.30;99607.91;8158474;29;20344;-73
2022/04/14 06:16:46;;;;;;;18.80;13.50;;;;;;;14.16;77.96;99611.75;8154802;29;20051;-73
2022/04/14 06:20:49;;;;;;;23.52;13.57;;;;;;;14.36;76.92;99600.09;8137516;29;20047;-73
2022/04/14 06:24:51;;;;;;;21.35;13.93;;;;;;;14.57;75.62;99610.25;8156888;29;20153;-74
2022/04/14 06:28:52;;;;;;;22.15;14.02;;;;;;;14.80;73.69;99618.56;8156612;29;20047;-74
2022/04/14 06:32:59;;;;;;;18.80;13.90;;;;;;;15.06;71.75;99617.19;8133371;29;20535;-74
2022/04/14 06:37:01;;;;;;;23.00;14.43;;;;;;;15.20;71.17;99615.19;8154023;29;20053;-74
2022/04/14 06:41:03;;;;;;;19.43;14.93;;;;;;;15.28;71.03;99617.66;8153841;29;20822;-74
2022/04/14 06:45:05;;;;;;;17.37;14.03;;;;;;;15.34;70.42;99620.16;8155582;29;20087;-73
2022/04/14 06:49:06;;;;;;;17.75;14.13;;;;;;;15.40;69.27;99623.50;8146745;29;20055;-73
2022/04/14 06:53:08;;;;;;;19.73;14.10;;;;;;;15.46;68.56;99626.91;8160471;29;20722;-73
2022/04/14 06:57:09;;;;;;;16.52;12.70;;;;;;;15.61;67.63;99632.69;8160394;29;20488;-73
2022/04/14 07:01:11;;;;;;;16.17;12.87;;;;;;;15.88;67.55;99630.38;8154451;29;20074;-72
2022/04/14 07:05:13;;;;;;;20.63;13.00;;;;;;;16.02;66.07;99628.31;8157631;29;20083;-72
2022/04/14 07:09:14;;;;;;;20.20;11.52;;;;;;;16.11;67.57;99620.25;8138375;29;20800;-72
2022/04/14 07:13:16;;;;;;;20.17;13.15;;;;;;;16.19;66.84;99631.44;8157584;29;20071;-73
2022/04/14 07:17:20;;;;;;;16.77;12.07;;;;;;;16.30;65.52;99639.88;8152213;29;20135;-71
2022/04/14 07:21:21;;;;;;;15.10;11.25;;;;;;;16.51;64.02;99635.00;8158510;29;20052;-71
2022/04/14 07:25:24;;;;;;;14.73;11.20;;;;;;;16.79;63.13;99641.31;8157226;29;20733;-71
2022/04/14 07:29:26;;;;;;;15.73;10.43;;;;;;;17.07;61.40;99649.34;8156128;29;20381;-72
2022/04/14 07:33:28;;;;;;;14.23;10.07;;;;;;;17.30;59.67;99655.72;8146136;28;20142;-72
2022/04/14 07:37:30;;;;;;;11.68;9.70;;;;;;;17.44;60.28;99656.22;8141840;29;20054;-72
2022/04/14 07:41:32;;;;;;;12.43;8.55;;;;;;;17.49;59.15;99649.91;8157752;29;20059;-72
2022/04/14 07:45:33;;;;;;;8.65;6.50;;;;;;;17.41;57.80;99658.91;8152046;29;20047;-72
2022/04/14 07:49:35;;;;;;;6.90;5.07;;;;;;;17.40;57.12;99660.66;8154629;29;20524;-72
2022/04/14 07:53:37;;;;;;;6.23;5.63;;;;;;;17.35;58.37;99664.34;8156269;29;20059;-72
2022/04/14 07:57:39;;;;;;;7.47;5.97;;;;;;;17.19;57.61;99667.38;8138757;29;20401;-72
2022/04/14 08:01:40;;;;;;;7.07;4.93;;;;;;;17.13;58.43;99667.53;8157828;29;20058;-72
2022/04/14 08:05:46;;;;;;;7.30;5.43;;;;;;;17.07;59.13;99670.34;8130629;29;20520;-73
2022/04/14 08:09:48;;;;;;;7.35;5.13;;;;;;;17.05;59.28;99677.38;8159644;29;20149;-73
2022/04/14 08:13:49;;;;;;;7.25;4.85;;;;;;;17.03;59.63;99679.16;8173692;29;20714;-73
2022/04/14 08:17:51;;;;;;;7.00;5.78;;;;;;;16.98;59.56;99681.06;8177829;28;20580;-73
2022/04/14 08:21:52;;;;;;;7.43;4.77;;;;;;;17.00;59.94;99683.63;8153123;29;20397;-72
2022/04/14 08:25:54;;;;;;;7.30;4.78;;;;;;;17.01;58.51;99686.22;8177294;29;20862;-72
2022/04/14 08:30:18;;;;;;;5.57;4.25;;;;;;;17.05;58.84;99692.25;8154111;29;20055;-72
2022/04/14 08:34:19;;;;;;;4.57;3.88;;;;;;;17.01;57.55;99687.97;8156187;29;20071;-72
2022/04/14 08:38:22;;;;;;;5.63;4.00;;;;;;;16.96;58.02;99697.75;8158775;29;20138;-73
2022/04/14 08:42:30;;;;;;;6.95;2.92;;;;;;;17.03;58.61;99696.66;8157972;29;20043;-73
2022/04/14 08:46:33;;;;;;;5.65;2.92;;;;;;;17.26;59.27;99702.19;8133180;29;20087;-73
2022/04/14 08:50:35;;;;;;;3.65;2.55;;;;;;;17.48;56.36;99695.47;8179855;29;20707;-74
2022/04/14 08:54:37;;;;;;;3.60;2.50;;;;;;;17.87;55.59;99695.25;8181135;29;20126;-72
2022/04/14 08:58:42;;;;;;;3.47;2.55;;;;;;;18.20;54.91;99697.78;8181095;29;20053;-72
2022/04/14 09:02:50;;;;;;;4.50;2.60;;;;;;;18.32;54.30;99693.03;8172237;29;20150;-71
2022/04/14 09:06:52;;;;;;;7.43;2.90;;;;;;;18.45;54.00;99706.63;8178089;29;20079;-73
2022/04/14 09:10:53;;;;;;;7.03;2.63;;;;;;;18.47;53.82;99706.59;8178819;29;20062;-72
2022/04/14 09:14:55;;;;;;;3.63;2.30;;;;;;;18.52;54.67;99702.91;8177258;29;20416;-72
2022/04/14 09:19:02;;;;;;;6.00;3.03;;;;;;;18.60;53.53;99703.53;8184411;29;20126;-72
2022/04/14 09:23:20;;;;;;;3.22;2.90;;;;;;;18.89;52.70;99701.75;8170381;29;20044;-71
2022/04/14 09:27:29;;;;;;;3.90;2.28;;;;;;;19.26;51.02;99701.38;8167262;29;20047;-72
2022/04/14 09:31:46;;;;;;;4.22;2.00;;;;;;;19.67;50.61;99689.38;8153740;29;20557;-72
2022/04/14 09:36:14;;;;;;;2.42;1.50;;;;;;;20.12;50.47;99692.06;8159876;29;20055;-72
2022/04/14 09:40:16;;;;;;;1.95;1.65;;;;;;;20.40;48.29;99694.47;8157486;29;20178;-71
2022/04/14 09:44:17;;;;;;;3.55;1.60;;;;;;;20.64;47.36;99691.78;8140083;29;20043;-71
2022/04/14 09:48:20;;;;;;;1.25;1.08;;;;;;;20.82;47.44;99691.03;8154673;29;20053;-71
2022/04/14 09:52:22;;;;;;;6.10;0.90;;;;;;;20.81;46.52;99690.16;8158452;29;20086;-72
2022/04/14 09:56:39;;;;;;;3.92;1.50;;;;;;;20.98;46.46;99697.38;8157097;28;20061;-70
2022/04/14 10:00:52;;;;;;;6.50;1.27;;;;;;;20.96;46.82;99695.75;8153947;29;20095;-70
2022/04/14 10:04:55;;;;;;;3.00;0.85;;;;;;;21.23;46.60;99696.38;8169755;29;20058;-71
2022/04/14 10:08:57;;;;;;;3.05;1.45;;;;;;;21.42;45.46;99690.25;8164878;29;20119;-71
2022/04/14 10:13:06;;;;;;;1.38;0.80;;;;;;;21.47;45.25;99684.75;8162898;29;20043;-71
2022/04/14 10:17:10;;;;;;;2.17;1.10;;;;;;;21.57;44.84;99682.56;8157882;29;20059;-71
2022/04/14 10:21:12;;;;;;;1.27;0.90;;;;;;;21.47;44.32;99687.41;8161341;29;20086;-71
2022/04/14 10:25:14;;;;;;;;;;;;;;;21.35;45.08;99696.72;8146091;29;20070;-71
2022/04/14 10:29:17;;;;;;;2.03;0.80;;;;;;;21.09;46.06;99691.66;8154864;29;20009;-70
2022/04/14 10:33:22;;;;;;;3.90;0.73;;;;;;;20.91;46.47;99695.94;8161394;29;20789;-69
2022/04/14 10:37:44;;;;;;;6.50;1.90;;;;;;;20.85;46.37;99693.56;8160300;29;20044;-70
2022/04/14 10:41:50;;;;;;;2.90;1.00;;;;;;;20.98;45.93;99688.63;8157772;29;20051;-70
2022/04/14 10:45:54;;;;;;;2.05;0.80;;;;;;;21.17;47.02;99692.19;8159257;28;20975;-70
2022/04/14 10:49:56;;;;;;;6.25;2.13;;;;;;;21.23;45.66;99686.66;8161388;29;20052;-70
2022/04/14 10:54:08;;;;;;;3.50;1.73;;;;;;;21.10;46.29;99686.31;8160272;29;20058;-70
2022/04/14 10:58:28;;;;;;;4.55;1.50;;;;;;;21.15;45.96;99685.25;8160873;29;20075;-70
2022/04/14 11:03:02;;;;;;;1.33;1.17;;;;;;;21.18;47.05;99679.84;8124224;29;20079;-70
2022/04/14 11:07:21;;;;;;;3.80;1.52;;;;;;;21.30;46.25;99682.00;8165329;29;20137;-70
2022/04/14 11:11:23;;;;;;;3.65;1.38;;;;;;;21.08;46.64;99680.25;8168327;29;20777;-70
2022/04/14 11:15:31;;;;;;;5.72;1.67;;;;;;;20.88;46.58;99674.97;8166647;29;20077;-71
2022/04/14 11:19:33;;;;;;;2.47;1.50;;;;;;;20.82;47.10;99683.09;8172309;29;20550;-69
2022/04/14 11:23:35;;;;;;;4.72;2.13;;;;;;;20.74;46.58;99682.59;8169172;29;20500;-70
2022/04/14 11:27:37;;;;;;;2.72;1.75;;;;;;;20.74;47.75;99685.22;8139067;29;20087;-70
2022/04/14 11:31:44;;;;;;;8.90;2.28;;;;;;;20.78;48.38;99678.88;8158721;29;20071;-70
2022/04/14 11:35:46;;;;;;;6.32;2.50;;;;;;;20.94;49.23;99682.59;8154495;29;20509;-71
2022/04/14 11:40:11;;;;;;;5.55;1.92;;;;;;;20.97;48.01;99678.97;8158766;29;20884;-70
2022/04/14 11:44:30;;;;;;;2.47;1.70;;;;;;;20.97;49.00;99674.56;8164902;29;20079;-70
2022/04/14 11:48:32;;;;;;;4.82;2.10;;;;;;;20.95;46.83;99670.25;8156231;29;20179;-70
2022/04/14 11:52:33;;;;;;;6.05;2.30;;;;;;;20.95;47.66;99667.63;8162250;29;20043;-70
2022/04/14 11:56:36;;;;;;;6.05;1.90;;;;;;;21.24;49.76;99664.63;8162054;29;20158;-70
2022/04/14 12:00:48;;;;;;;7.20;1.40;;;;;;;21.53;47.26;99671.25;8159382;29;20054;-69
2022/04/14 12:04:53;;;;;;;5.85;1.58;;;;;;;21.80;47.11;99671.81;8160851;29;20431;-70
2022/04/14 12:08:56;;;;;;;3.30;1.55;;;;;;;21.99;45.44;99667.38;8161548;29;20086;-69
2022/04/14 12:13:08;;;;;;;5.82;1.85;;;;;;;22.28;44.98;99665.19;8162722;29;20520;-70
2022/04/14 12:17:10;;;;;;;5.32;1.20;;;;;;;22.56;45.70;99656.75;8159941;29;20066;-70
2022/04/14 12:21:23;;;;;;;3.10;1.70;;;;;;;22.94;44.11;99646.06;8172787;28;20082;-70
2022/04/14 12:25:25;;;;;;;3.35;1.10;;;;;;;22.69;41.91;99652.56;8171767;29;20925;-70
2022/04/14 12:29:26;;;;;;;6.22;1.40;;;;;;;22.80;42.87;99650.25;8178855;29;20055;-70
2022/04/14 12:33:28;;;;;;;;;;;;;;;22.74;42.16;99642.59;8170488;28;20142;-69
2022/04/14 12:37:51;;;;;;;4.43;1.20;;;;;;;22.65;42.81;99642.22;8169401;29;20425;-70
2022/04/14 12:41:54;;;;;;;2.20;1.00;;;;;;;22.53;43.89;99641.88;8174337;29;20066;-69
2022/04/14 12:45:55;;;;;;;3.38;0.82;;;;;;;22.45;44.16;99641.41;8163969;28;20496;-69
2022/04/14 12:49:58;;;;;;;2.90;0.80;;;;;;;22.57;43.72;99629.34;8171904;29;20080;-69
2022/04/14 12:54:01;;;;;;;3.67;1.10;;;;;;;22.82;42.56;99632.53;8177344;29;20457;-71
2022/04/14 12:58:13;;;;;;;3.60;1.00;;;;;;;23.12;42.27;99635.38;8172353;29;20476;-69
2022/04/14 13:02:16;;;;;;;5.57;1.40;;;;;;;23.43;41.08;99626.69;8177035;28;20055;-69
2022/04/14 13:06:19;;;;;;;3.85;1.15;;;;;;;23.62;41.23;99621.28;8156542;29;20036;-70
2022/04/14 13:10:34;;;;;;;2.95;1.00;;;;;;;23.75;40.36;99608.22;8172019;29;20086;-70
2022/04/14 13:14:47;;;;;;;3.40;1.45;;;;;;;23.84;39.77;99615.66;8175489;29;20062;-70
2022/04/14 13:19:04;;;;;;;8.75;1.63;;;;;;;24.05;39.92;99610.94;8172104;29;20067;-69
2022/04/14 13:23:10;;;;;;;4.47;1.10;;;;;;;24.13;40.70;99614.03;8168970;29;20078;-70
2022/04/14 13:27:11;;;;;;;2.75;0.90;;;;;;;24.14;40.65;99626.34;8168159;29;20051;-69
2022/04/14 13:31:13;;;;;;;2.45;0.90;;;;;;;23.77;39.47;99630.19;8150326;28;20364;-69
2022/04/14 13:35:15;;;;;;;3.28;1.20;;;;;;;23.48;40.97;99629.06;8169061;29;20749;-69
2022/04/14 13:39:16;;;;;;;;;;;;;;;23.10;41.20;99631.94;8163089;29;20067;-69
2022/04/14 13:43:17;;;;;;;2.90;1.00;;;;;;;22.77;41.41;99634.50;8177178;29;19930;-69
2022/04/14 13:47:19;;;;;;;5.38;0.88;;;;;;;22.55;42.63;99632.06;8166955;29;20773;-69
2022/04/14 13:51:21;;;;;;;1.65;0.70;;;;;;;22.39;42.99;99622.31;8172987;29;20051;-69
2022/04/14 13:55:27;;;;;;;1.35;0.80;;;;;;;22.32;43.59;99624.41;8168453;29;20052;-69
2022/04/14 13:59:29;;;;;;;7.22;0.98;;;;;;;22.28;43.96;99630.81;8162074;29;20201;-69
2022/04/14 14:03:30;;;;;;;2.60;0.70;;;;;;;22.27;44.23;99631.72;8156431;29;20040;-69
2022/04/14 14:07:32;;;;;;;4.35;0.90;;;;;;;22.26;44.02;99636.16;8153134;29;20055;-69
2022/04/14 14:11:34;;;;;;;5.70;0.95;;;;;;;22.13;42.55;99627.09;8162004;29;20356;-69
2022/04/14 14:15:35;;;;;;;;;;;;;;;;;;8167682;28;20154;-69
2022/04/14 14:19:37;;;;;;;3.92;0.93;;;;;;;22.10;42.73;99627.25;8158307;29;20045;-69
2022/04/14 14:23:38;;;;;;;1.95;0.88;;;;;;;21.98;43.77;99636.59;8165014;29;20045;-70
2022/04/14 14:27:41;;;;;;;3.03;0.77;;;;;;;21.88;44.01;99640.56;8163001;29;20397;-70
2022/04/14 14:31:44;;;;;;;3.58;0.80;;;;;;;21.77;43.32;99639.38;8158530;29;20463;-70
2022/04/14 14:35:46;;;;;;;1.58;0.77;;;;;;;21.67;43.33;99647.72;8164150;29;20527;-70
2022/04/14 14:39:47;;;;;;;3.88;0.98;;;;;;;21.59;42.93;99647.22;8178831;29;20766;-70
2022/04/14 14:43:49;;;;;;;3.00;1.15;;;;;;;21.57;43.13;99645.56;8177457;28;20704;-70
2022/04/14 14:47:50;;;;;;;4.63;1.10;;;;;;;21.60;43.98;99654.22;8156574;29;20443;-70
2022/04/14 14:51:53;;;;;;;3.45;0.90;;;;;;;21.64;44.28;99644.34;8170616;29;20467;-70
2022/04/14 14:55:54;;;;;;;2.38;0.90;;;;;;;21.66;43.74;99635.44;8168898;29;20048;-70
2022/04/14 14:59:55;;;;;;;3.67;0.90;;;;;;;21.70;45.00;99637.00;8169185;29;20110;-69
2022/04/14 15:03:57;;;;;;;4.32;1.10;;;;;;;21.69;44.66;99643.22;8165246;29;20051;-70
2022/04/14 15:08:04;;;;;;;2.10;1.15;;;;;;;21.73;42.74;99637.81;8167995;29;20075;-70
2022/04/14 15:12:06;;;;;;;;;;;;;;;22.03;44.00;99646.94;8169733;29;20471;-70
2022/04/14 15:16:07;;;;;;;3.00;0.77;;;;;;;22.01;42.66;99649.66;8162023;29;20030;-70
2022/04/14 15:20:09;;;;;;;9.93;1.17;;;;;;;21.74;42.94;99645.66;8165768;29;20083;-69
2022/04/14 15:24:11;;;;;;;3.00;1.10;;;;;;;21.60;43.08;99648.94;8162002;29;20085;-70
2022/04/14 15:28:12;;;;;;;5.38;0.90;;;;;;;21.52;44.14;99645.75;8170283;29;20126;-70
2022/04/14 15:32:16;;;;;;;4.00;0.80;;;;;;;21.44;44.52;99641.75;8140285;29;20051;-70
2022/04/14 15:36:18;;;;;;;1.38;0.80;;;;;;;21.39;45.33;99639.34;8165613;29;20884;-69
2022/04/14 15:40:19;;;;;;;3.45;1.02;;;;;;;21.34;45.92;99655.38;8165312;29;20055;-70
2022/04/14 15:44:21;;;;;;;1.90;0.60;;;;;;;21.31;44.67;99652.00;8168029;29;20082;-70
2022/04/14 15:48:22;;;;;;;5.85;0.90;;;;;;;21.22;44.07;99650.59;8165544;28;20518;-70
2022/04/14 15:52:24;;;;;;;1.45;0.60;;;;;;;21.16;44.23;99653.50;8172477;29;20050;-70
2022/04/14 15:56:25;;;;;;;2.60;0.63;;;;;;;21.13;45.12;99662.41;8169622;29;20046;-71
2022/04/14 16:00:27;;;;;;;7.32;0.80;;;;;;;21.05;45.10;99658.41;8164726;29;20051;-70
2022/04/14 16:04:29;;;;;;;2.78;0.80;;;;;;;20.99;45.14;99662.16;8166302;29;20150;-70
2022/04/14 16:08:30;;;;;;;3.08;0.60;;;;;;;21.00;45.15;99663.00;8167073;29;20051;-71
2022/04/14 16:12:32;;;;;;;4.93;0.82;;;;;;;21.54;45.74;99657.13;8166991;29;20440;-70
2022/04/14 16:16:33;;;;;;;4.22;0.68;;;;;;;22.05;43.81;99660.97;8144968;29;20070;-70
2022/04/14 16:20:35;;;;;;;3.53;0.73;;;;;;;21.94;43.43;99665.88;8157296;29;20083;-70
2022/04/14 16:24:37;;;;;;;4.95;0.95;;;;;;;21.85;43.36;99656.59;8157998;29;20090;-70
2022/04/14 16:28:39;;;;;;;5.38;1.65;;;;;;;22.25;42.65;99660.88;8154206;29;20047;-70
2022/04/14 16:32:41;;;;;;;4.70;0.70;;;;;;;22.51;41.46;99662.28;8146840;29;20044;-70
2022/04/14 16:36:43;;;;;;;6.43;1.00;;;;;;;22.46;42.36;99666.09;8152687;29;20525;-70
2022/04/14 16:40:44;;;;;;;6.10;0.73;;;;;;;22.29;41.82;99666.91;8153343;29;20039;-70
2022/04/14 16:44:45;;;;;;;1.58;0.60;;;;;;;22.13;42.13;99671.22;8161686;29;20071;-70
2022/04/14 16:48:47;;;;;;;4.43;0.88;;;;;;;22.26;42.49;99674.97;8167042;28;20503;-70
2022/04/14 16:52:48;;;;;;;3.55;0.85;;;;;;;21.97;42.45;99678.97;8162944;29;20131;-71
2022/04/14 16:56:50;;;;;;;2.33;0.80;;;;;;;21.52;43.16;99674.81;8147465;29;20078;-70
2022/04/14 17:00:51;;;;;;;1.40;0.60;;;;;;;21.12;43.40;99676.53;8157212;29;20158;-70
2022/04/14 17:04:53;;;;;;;1.48;0.63;;;;;;;20.81;44.54;99684.91;8160165;29;20845;-70
2022/04/14 17:08:54;;;;;;;3.90;0.60;;;;;;;20.55;45.33;99684.25;8165908;29;20082;-70
2022/04/14 17:12:55;;;;;;;3.45;0.90;;;;;;;20.31;45.81;99692.22;8163522;29;20043;-70
2022/04/14 17:16:57;;;;;;;1.77;0.63;;;;;;;20.15;47.33;99693.72;8164253;29;20074;-70
2022/04/14 17:20:58;;;;;;;2.38;0.70;;;;;;;20.01;47.74;99690.75;8165574;29;20062;-70
2022/04/14 17:25:00;;;;;;;0.82;0.70;;;;;;;19.90;47.11;99697.28;8169009;29;20053;-70
2022/04/14 17:29:01;;;;;;;3.35;0.70;;;;;;;19.82;48.88;99690.59;8167743;29;20054;-70
2022/04/14 17:33:03;;;;;;;2.28;0.68;;;;;;;19.70;49.72;99696.28;8163825;29;20139;-70
2022/04/14 17:37:05;;;;;;;1.42;0.50;;;;;;;19.64;49.99;99696.53;8166819;29;20416;-69
2022/04/14 17:41:07;;;;;;;7.90;0.70;;;;;;;19.56;49.49;99700.28;8165767;29;20056;-69
2022/04/14 17:45:09;;;;;;;15.70;3.25;;;;;;;19.48;50.82;99691.78;8163012;29;20098;-68
2022/04/14 17:49:11;;;;;;;2.08;0.73;;;;;;;19.41;50.51;99698.19;8151434;29;20064;-69
2022/04/14 17:53:12;;;;;;;3.55;0.70;;;;;;;19.32;50.09;99701.13;8160585;29;20052;-69
2022/04/14 17:57:14;;;;;;;3.92;0.75;;;;;;;19.18;50.54;99704.25;8159734;29;20441;-69
2022/04/14 18:01:16;;;;;;;0.63;0.50;;;;;;;19.08;51.09;99708.13;8164698;29;20087;-69
2022/04/14 18:05:18;;;;;;;2.30;0.70;;;;;;;18.97;51.94;99719.00;8170721;29;20790;-69
2022/04/14 18:09:19;;;;;;;1.60;0.70;;;;;;;18.79;52.91;99718.75;8167625;29;20047;-70
2022/04/14 18:13:21;;;;;;;2.08;0.70;;;;;;;18.58;54.18;99722.91;8169076;29;20498;-71
2022/04/14 18:17:23;;;;;;;13.50;1.88;;;;;;;18.42;54.51;99727.78;8165339;28;20567;-70
2022/04/14 18:21:25;;;;;;;3.90;0.82;;;;;;;18.26;53.93;99726.50;8167091;29;20504;-71
2022/04/14 18:25:31;;;;;;;1.98;0.70;;;;;;;18.08;56.16;99734.03;8169564;29;20069;-70
2022/04/14 18:29:32;;;;;;;4.53;0.80;;;;;;;17.91;56.95;99735.44;8169205;29;20085;-70
2022/04/14 18:33:34;;;;;;;2.83;0.73;;;;;;;17.77;58.43;99733.19;8160884;28;20996;-70
2022/04/14 18:37:37;;;;;;;2.75;0.60;;;;;;;17.58;59.23;99735.44;8167504;29;20301;-71
2022/04/14 18:41:39;;;;;;;2.72;0.73;;;;;;;17.41;60.36;99745.53;8166618;29;20313;-71
2022/04/14 18:45:41;;;;;;;3.58;0.50;;;;;;;17.20;61.27;99750.44;8158442;29;20071;-71
2022/04/14 18:49:42;;;;;;;5.18;0.70;;;;;;;17.09;61.80;99757.75;8143508;29;20057;-71
2022/04/14 18:53:44;;;;;;;3.88;1.48;;;;;;;16.92;62.39;99762.53;8161658;29;20053;-70
2022/04/14 18:57:45;;;;;;;1.77;0.60;;;;;;;16.82;63.04;99766.28;8168251;29;20047;-71
2022/04/14 19:01:47;;;;;;;2.37;0.50;;;;;;;16.67;63.87;99770.13;8170201;28;20472;-72